createdAt,value
2018-04-25T00:02:00.838Z,18.70
2018-04-25T00:04:29.366Z,20.53
2018-04-25T00:06:58.068Z,17.93
2018-04-25T00:09:26.519Z,15.40
2018-04-25T00:11:54.952Z,19.30
2018-04-25T00:14:23.546Z,17.37
2018-04-25T00:16:51.972Z,17.90
2018-04-25T00:19:21.123Z,17.40
2018-04-25T00:21:49.634Z,16.10
2018-04-25T00:24:18.246Z,18.33
2018-04-25T00:26:46.561Z,18.20
2018-04-25T00:29:15.114Z,24.93
2018-04-25T00:31:43.595Z,13.57
2018-04-25T00:34:12.075Z,15.60
2018-04-25T00:36:40.671Z,13.93
2018-04-25T00:39:09.142Z,18.23
2018-04-25T00:41:37.660Z,18.67
2018-04-25T00:44:09.690Z,17.00
2018-04-25T00:46:38.154Z,13.17
2018-04-25T00:49:06.696Z,16.87
2018-04-25T00:51:35.848Z,15.10
2018-04-25T00:54:04.200Z,16.93
2018-04-25T00:56:32.806Z,17.40
2018-04-25T00:59:02.025Z,15.93
2018-04-25T01:01:30.456Z,15.17
2018-04-25T01:03:59.732Z,17.67
2018-04-25T01:06:28.276Z,28.83
2018-04-25T01:08:57.141Z,22.40
2018-04-25T01:11:25.660Z,16.83
2018-04-25T01:13:54.117Z,17.20
2018-04-25T01:16:23.833Z,16.90
2018-04-25T01:18:52.333Z,21.33
2018-04-25T01:21:20.893Z,15.67
2018-04-25T01:23:49.377Z,18.07
2018-04-25T01:26:18.010Z,16.63
2018-04-25T01:28:50.261Z,18.60
2018-04-25T01:31:19.679Z,16.57
2018-04-25T01:33:51.972Z,15.37
2018-04-25T01:36:37.991Z,15.10
2018-04-25T01:39:14.283Z,14.17
2018-04-25T01:41:45.296Z,17.03
2018-04-25T01:44:21.549Z,16.20
2018-04-25T01:46:50.199Z,20.07
2018-04-25T01:49:26.614Z,19.50
2018-04-25T01:52:07.075Z,19.93
2018-04-25T01:54:47.431Z,24.50
2018-04-25T01:57:27.692Z,17.30
2018-04-25T02:00:15.833Z,18.17
2018-04-25T02:02:44.620Z,21.33
2018-04-25T02:05:13.163Z,16.27
2018-04-25T02:07:42.408Z,21.77
2018-04-25T02:10:10.880Z,19.00
2018-04-25T02:12:39.408Z,13.43
2018-04-25T02:15:07.954Z,21.77
2018-04-25T02:17:37.072Z,16.57
2018-04-25T02:20:05.476Z,11.90
2018-04-25T02:22:34.722Z,19.10
2018-04-25T02:25:03.226Z,17.50
2018-04-25T02:27:31.561Z,19.83
2018-04-25T02:30:00.062Z,20.70
2018-04-25T02:32:28.436Z,16.70
2018-04-25T02:34:56.746Z,17.20
2018-04-25T02:37:25.301Z,20.13
2018-04-25T02:39:53.986Z,14.27
2018-04-25T02:42:22.514Z,23.20
2018-04-25T02:44:57.069Z,17.37
2018-04-25T02:47:27.417Z,21.20
2018-04-25T02:49:55.859Z,13.33
2018-04-25T02:52:25.034Z,16.83
2018-04-25T02:54:53.475Z,18.07
2018-04-25T02:57:21.844Z,19.00
2018-04-25T02:59:50.415Z,20.83
2018-04-25T03:02:19.023Z,16.43
2018-04-25T03:04:47.609Z,23.73
2018-04-25T03:07:16.095Z,16.53
2018-04-25T03:09:44.583Z,20.93
2018-04-25T03:12:13.042Z,20.13
2018-04-25T03:14:41.520Z,22.50
2018-04-25T03:17:10.012Z,13.87
2018-04-25T03:19:38.483Z,19.03
2018-04-25T03:22:06.820Z,22.00
2018-04-25T03:24:35.908Z,19.07
2018-04-25T03:27:04.340Z,18.47
2018-04-25T03:29:32.972Z,15.77
2018-04-25T03:32:02.222Z,17.30
2018-04-25T03:34:30.531Z,21.27
2018-04-25T03:36:58.981Z,21.90
2018-04-25T03:39:27.421Z,27.80
2018-04-25T03:41:56.760Z,22.60
2018-04-25T03:44:25.146Z,17.03
2018-04-25T03:46:53.519Z,22.73
2018-04-25T03:49:21.948Z,27.03
2018-04-25T03:51:51.098Z,19.00
2018-04-25T03:54:19.418Z,17.07
2018-04-25T03:56:48.664Z,19.37
2018-04-25T03:59:17.357Z,20.40
2018-04-25T04:01:48.311Z,19.93
2018-04-25T04:04:17.852Z,27.03
2018-04-25T04:06:47.640Z,23.33
2018-04-25T04:09:16.320Z,32.00
2018-04-25T04:11:44.822Z,31.93
2018-04-25T04:14:17.253Z,26.67
2018-04-25T04:16:45.729Z,19.70
2018-04-25T04:19:14.028Z,27.00
2018-04-25T04:21:42.394Z,25.87
2018-04-25T04:24:10.866Z,29.10
2018-04-25T04:26:39.354Z,24.03
2018-04-25T04:29:07.929Z,26.40
2018-04-25T04:31:36.351Z,27.43
2018-04-25T04:34:04.791Z,27.33
2018-04-25T04:36:33.275Z,21.53
2018-04-25T04:39:01.706Z,30.20
2018-04-25T04:41:31.507Z,27.53
2018-04-25T04:44:01.478Z,29.57
2018-04-25T04:46:31.290Z,67.87
2018-04-25T04:48:59.770Z,79.93
2018-04-25T04:51:28.192Z,66.00
2018-04-25T04:53:56.629Z,73.87
2018-04-25T04:56:25.060Z,90.90
2018-04-25T04:58:53.598Z,49.33
2018-04-25T05:01:21.976Z,55.57
2018-04-25T05:03:50.456Z,49.87
2018-04-25T05:06:18.880Z,50.20
2018-04-25T05:08:49.881Z,49.37
2018-04-25T05:11:19.219Z,41.40
2018-04-25T05:13:48.523Z,55.47
2018-04-25T05:16:17.770Z,51.83
2018-04-25T05:18:46.218Z,49.00
2018-04-25T05:21:14.836Z,66.73
2018-04-25T05:23:43.268Z,46.00
2018-04-25T05:26:11.696Z,36.73
2018-04-25T05:28:40.219Z,41.03
2018-04-25T05:31:08.622Z,51.77
2018-04-25T05:33:37.315Z,45.43
2018-04-25T05:36:05.752Z,69.77
2018-04-25T05:38:34.254Z,78.20
2018-04-25T05:41:02.683Z,92.50
2018-04-25T05:43:31.167Z,70.80
2018-04-25T05:45:59.713Z,43.87
2018-04-25T05:48:28.332Z,46.63
2018-04-25T05:50:57.844Z,48.77
2018-04-25T05:53:26.163Z,48.60
2018-04-25T05:55:54.656Z,35.13
2018-04-25T05:58:24.727Z,63.07
2018-04-25T06:00:53.306Z,41.07
2018-04-25T06:03:21.885Z,37.27
2018-04-25T06:05:50.462Z,31.40
2018-04-25T06:08:20.830Z,44.43
2018-04-25T06:10:49.481Z,24.00
2018-04-25T06:13:18.061Z,25.37
2018-04-25T06:15:46.581Z,38.00
2018-04-25T06:18:15.749Z,28.30
2018-04-25T06:20:44.322Z,28.87
2018-04-25T06:23:12.898Z,27.73
2018-04-25T06:25:41.353Z,18.87
2018-04-25T06:28:10.764Z,27.90
2018-04-25T06:30:39.369Z,23.83
2018-04-25T06:33:08.677Z,21.83
2018-04-25T06:35:37.349Z,19.03
2018-04-25T06:38:05.877Z,19.63
2018-04-25T06:40:34.416Z,20.30
2018-04-25T06:43:03.017Z,25.13
2018-04-25T06:45:31.502Z,28.07
2018-04-25T06:48:00.772Z,27.33
2018-04-25T06:50:29.109Z,31.67
2018-04-25T06:52:57.518Z,21.80
2018-04-25T06:55:25.970Z,31.90
2018-04-25T06:57:54.508Z,30.30
2018-04-25T07:00:23.052Z,24.13
2018-04-25T07:02:51.771Z,26.73
2018-04-25T07:05:20.356Z,35.77
2018-04-25T07:07:48.839Z,22.47
2018-04-25T07:10:17.335Z,20.67
2018-04-25T07:12:46.103Z,23.43
2018-04-25T07:15:16.300Z,32.20
2018-04-25T07:17:44.902Z,23.00
2018-04-25T07:20:13.387Z,20.93
2018-04-25T07:22:41.868Z,26.53
2018-04-25T07:25:11.155Z,18.97
2018-04-25T07:27:39.775Z,29.53
2018-04-25T07:30:08.360Z,24.60
2018-04-25T07:32:37.748Z,31.30
2018-04-25T07:35:06.422Z,23.23
2018-04-25T07:37:34.942Z,31.30
2018-04-25T07:40:03.588Z,27.17
2018-04-25T07:42:32.200Z,31.07
2018-04-25T07:45:00.652Z,28.97
2018-04-25T07:47:29.134Z,26.23
2018-04-25T07:49:57.687Z,22.83
2018-04-25T07:52:26.202Z,25.83
2018-04-25T07:54:54.611Z,21.50
2018-04-25T07:57:23.160Z,17.63
2018-04-25T07:59:52.679Z,23.30
2018-04-25T08:02:21.272Z,21.60
2018-04-25T08:04:49.903Z,23.17
2018-04-25T08:07:18.471Z,26.53
2018-04-25T08:09:46.917Z,27.07
2018-04-25T08:12:27.083Z,23.60
2018-04-25T08:15:07.508Z,26.00
2018-04-25T08:17:47.718Z,22.87
2018-04-25T08:20:27.750Z,20.12
2018-04-25T08:22:56.300Z,31.43
2018-04-25T08:25:24.889Z,18.62
2018-04-25T08:27:53.425Z,18.70
2018-04-25T08:30:22.379Z,22.87
2018-04-25T08:32:50.920Z,30.45
2018-04-25T08:35:19.397Z,25.17
2018-04-25T08:37:47.851Z,25.83
2018-04-25T08:40:17.779Z,19.77
2018-04-25T08:42:47.146Z,24.17
2018-04-25T08:45:15.831Z,34.60
2018-04-25T08:47:44.344Z,29.58
2018-04-25T08:50:12.870Z,32.65
2018-04-25T08:52:41.554Z,38.97
2018-04-25T08:55:10.034Z,24.45
2018-04-25T08:57:38.541Z,25.08
2018-04-25T09:00:07.618Z,25.35
2018-04-25T09:02:37.597Z,34.08
2018-04-25T09:05:06.235Z,26.48
2018-04-25T09:07:34.719Z,29.92
2018-04-25T09:10:03.133Z,32.20
2018-04-25T09:12:33.059Z,33.78
2018-04-25T09:15:02.711Z,24.30
2018-04-25T09:17:31.275Z,27.73
2018-04-25T09:20:00.478Z,27.20
2018-04-25T09:22:30.914Z,31.15
2018-04-25T09:24:59.616Z,32.27
2018-04-25T09:27:29.032Z,25.33
2018-04-25T09:29:57.991Z,22.42
2018-04-25T09:32:26.624Z,22.87
2018-04-25T09:34:55.918Z,27.10
2018-04-25T09:37:25.279Z,22.63
2018-04-25T09:39:55.379Z,24.65
2018-04-25T09:42:23.855Z,27.58
2018-04-25T09:44:52.349Z,24.70
2018-04-25T09:47:20.965Z,28.12
2018-04-25T09:49:49.517Z,28.73
2018-04-25T09:52:18.225Z,24.58
2018-04-25T09:54:46.803Z,31.15
2018-04-25T09:57:16.309Z,32.22
2018-04-25T09:59:44.873Z,35.20
2018-04-25T10:02:18.786Z,29.27
2018-04-25T10:04:47.306Z,26.27
2018-04-25T10:07:17.168Z,26.50
2018-04-25T10:09:45.784Z,20.62
2018-04-25T10:12:14.348Z,16.42
2018-04-25T10:14:42.823Z,22.17
2018-04-25T10:17:11.225Z,27.20
2018-04-25T10:19:39.893Z,22.13
2018-04-25T10:22:08.256Z,30.95
2018-04-25T10:24:36.715Z,34.85
2018-04-25T10:27:05.905Z,24.10
2018-04-25T10:29:34.338Z,28.52
2018-04-25T10:32:02.957Z,28.70
2018-04-25T10:34:31.499Z,28.25
2018-04-25T10:36:59.969Z,23.20
2018-04-25T10:39:28.941Z,22.02
2018-04-25T10:41:57.496Z,28.27
2018-04-25T10:44:26.745Z,22.77
2018-04-25T10:46:55.249Z,24.30
2018-04-25T10:49:25.321Z,25.05
2018-04-25T10:51:53.716Z,19.85
2018-04-25T10:54:22.103Z,24.23
2018-04-25T10:56:50.769Z,23.60
2018-04-25T10:59:19.308Z,26.90
2018-04-25T11:01:47.666Z,40.58
2018-04-25T11:04:17.158Z,29.20
2018-04-25T11:06:49.464Z,27.23
2018-04-25T11:09:19.446Z,22.60
2018-04-25T11:11:48.029Z,32.45
2018-04-25T11:14:17.264Z,33.20
2018-04-25T11:16:47.547Z,25.48
2018-04-25T11:19:15.975Z,30.02
2018-04-25T11:21:45.226Z,26.33
2018-04-25T11:24:13.820Z,32.63
2018-04-25T11:26:43.931Z,33.83
2018-04-25T11:29:12.356Z,33.70
2018-04-25T11:31:41.632Z,33.80
2018-04-25T11:34:10.293Z,30.85
2018-04-25T11:36:38.877Z,38.13
2018-04-25T11:39:07.460Z,38.58
2018-04-25T11:41:35.918Z,43.25
2018-04-25T11:44:04.396Z,40.58
2018-04-25T11:46:32.965Z,41.08
2018-04-25T11:49:01.603Z,37.92
2018-04-25T11:51:30.204Z,32.42
2018-04-25T11:54:01.069Z,34.70
2018-04-25T11:56:31.206Z,35.13
2018-04-25T11:58:59.927Z,31.50
2018-04-25T12:01:28.496Z,35.70
2018-04-25T12:03:57.090Z,39.10
2018-04-25T12:06:25.678Z,34.58
2018-04-25T12:08:54.202Z,24.77
2018-04-25T12:11:22.928Z,40.15
2018-04-25T12:13:51.444Z,28.98
2018-04-25T12:16:19.985Z,28.80
2018-04-25T12:18:48.463Z,33.55
2018-04-25T12:21:16.879Z,30.17
2018-04-25T12:23:45.346Z,27.85
2018-04-25T12:26:13.925Z,31.50
2018-04-25T12:28:42.607Z,30.62
2018-04-25T12:31:11.158Z,29.52
2018-04-25T12:33:39.667Z,29.95
2018-04-25T12:36:08.241Z,30.58
2018-04-25T12:38:36.729Z,23.98
2018-04-25T12:41:05.110Z,25.45
2018-04-25T12:43:33.492Z,22.00
2018-04-25T12:46:01.927Z,17.75
2018-04-25T12:48:31.271Z,19.40
2018-04-25T12:50:59.749Z,23.10
2018-04-25T12:53:28.127Z,34.93
2018-04-25T12:55:56.612Z,29.75
2018-04-25T12:58:25.105Z,23.35
2018-04-25T13:00:53.520Z,21.35
2018-04-25T13:03:22.882Z,18.33
2018-04-25T13:05:51.357Z,27.05
2018-04-25T13:08:19.734Z,22.45
2018-04-25T13:10:48.154Z,22.83
2018-04-25T13:13:16.594Z,28.87
2018-04-25T13:15:45.244Z,26.92
2018-04-25T13:18:14.050Z,23.25
2018-04-25T13:20:42.544Z,27.37
2018-04-25T13:23:10.957Z,19.27
2018-04-25T13:25:39.323Z,21.87
2018-04-25T13:28:07.841Z,21.63
2018-04-25T13:30:36.998Z,22.23
2018-04-25T13:33:05.393Z,21.37
2018-04-25T13:35:33.840Z,19.27
2018-04-25T13:38:02.319Z,29.33
2018-04-25T13:40:31.129Z,21.83
2018-04-25T13:42:59.591Z,17.47
2018-04-25T13:45:28.072Z,18.17
2018-04-25T13:47:57.376Z,20.10
2018-04-25T13:50:25.781Z,21.23
2018-04-25T13:52:54.228Z,22.57
2018-04-25T13:55:22.814Z,27.27
2018-04-25T13:57:51.301Z,19.87
2018-04-25T14:00:19.978Z,22.07
2018-04-25T14:02:48.387Z,18.73
2018-04-25T14:05:16.763Z,19.27
2018-04-25T14:07:45.353Z,22.13
2018-04-25T14:10:15.268Z,17.43
2018-04-25T14:12:43.664Z,17.25
2018-04-25T14:15:12.845Z,18.63
2018-04-25T14:17:41.290Z,23.15
2018-04-25T14:20:09.624Z,20.13
2018-04-25T14:22:38.867Z,24.90
2018-04-25T14:25:07.193Z,19.33
2018-04-25T14:27:35.630Z,17.47
2018-04-25T14:30:04.312Z,25.97
2018-04-25T14:36:05.210Z,20.70
2018-04-25T14:38:35.088Z,22.97
2018-04-25T14:41:03.777Z,19.13
2018-04-25T14:43:32.255Z,25.10
2018-04-25T14:46:00.730Z,21.73
2018-04-25T14:48:29.343Z,25.83
2018-04-25T14:50:58.613Z,14.90
2018-04-25T14:53:27.084Z,19.97
2018-04-25T14:55:55.501Z,19.03
2018-04-25T14:58:24.063Z,22.95
2018-04-25T15:00:52.746Z,17.60
2018-04-25T15:03:21.222Z,22.55
2018-04-25T15:05:49.605Z,22.60
2018-04-25T15:08:18.288Z,27.98
2018-04-25T15:10:47.316Z,27.67
2018-04-25T15:13:15.767Z,21.67
2018-04-25T15:15:44.176Z,18.48
2018-04-25T15:18:12.620Z,24.40
2018-04-25T15:20:41.112Z,22.90
2018-04-25T15:23:09.586Z,21.40
2018-04-25T15:25:38.043Z,22.20
2018-04-25T15:28:06.490Z,19.83
2018-04-25T15:30:34.795Z,22.40
2018-04-25T15:33:03.340Z,17.27
2018-04-25T15:35:31.832Z,23.50
2018-04-25T15:38:01.005Z,20.00
2018-04-25T15:40:29.472Z,19.73
2018-04-25T15:42:57.949Z,24.60
2018-04-25T15:45:26.305Z,18.63
2018-04-25T15:47:54.681Z,23.40
2018-04-25T15:50:23.025Z,24.00
2018-04-25T15:52:51.659Z,21.13
2018-04-25T15:55:20.140Z,22.33
2018-04-25T15:57:48.526Z,26.02
2018-04-25T16:00:17.065Z,24.53
2018-04-25T16:02:46.407Z,21.70
2018-04-25T16:05:14.894Z,17.50
2018-04-25T16:07:43.273Z,27.03
2018-04-25T16:10:11.782Z,20.57
2018-04-25T16:12:40.119Z,21.43
2018-04-25T16:15:08.643Z,21.15
2018-04-25T16:17:38.668Z,18.98
2018-04-25T16:20:08.544Z,24.93
2018-04-25T16:22:37.016Z,19.47
2018-04-25T16:25:05.388Z,25.60
2018-04-25T16:27:33.729Z,19.80
2018-04-25T16:30:03.222Z,15.73
2018-04-25T16:32:31.659Z,20.90
2018-04-25T16:35:00.152Z,18.93
2018-04-25T16:37:28.651Z,18.80
2018-04-25T16:39:57.406Z,19.50
2018-04-25T16:42:25.928Z,21.27
2018-04-25T16:44:54.427Z,28.33
2018-04-25T16:47:23.721Z,32.63
2018-04-25T16:49:52.006Z,31.73
2018-04-25T16:52:21.201Z,20.23
2018-04-25T16:54:49.736Z,24.73
2018-04-25T16:57:19.259Z,25.53
2018-04-25T16:59:54.410Z,30.50
2018-04-25T17:02:24.078Z,27.73
2018-04-25T17:04:52.456Z,34.17
2018-04-25T17:07:21.140Z,24.57
2018-04-25T17:09:50.530Z,21.30
2018-04-25T17:12:20.454Z,25.50
2018-04-25T17:14:51.784Z,29.00
2018-04-25T17:17:20.325Z,26.23
2018-04-25T17:19:49.590Z,22.57
2018-04-25T17:22:21.206Z,19.57
2018-04-25T17:24:54.733Z,26.00
2018-04-25T17:27:24.355Z,21.70
2018-04-25T17:29:53.041Z,14.67
2018-04-25T17:32:21.517Z,21.40
2018-04-25T17:34:52.719Z,27.03
2018-04-25T17:37:21.970Z,21.57
2018-04-25T17:39:51.491Z,21.70
2018-04-25T17:42:20.982Z,21.70
2018-04-25T17:44:49.666Z,21.00
2018-04-25T17:47:18.247Z,26.00
2018-04-25T17:49:47.593Z,21.83
2018-04-25T17:52:16.943Z,27.90
2018-04-25T17:54:45.790Z,15.77
2018-04-25T17:57:16.061Z,20.50
2018-04-25T17:59:45.568Z,20.17
2018-04-25T18:02:14.969Z,21.57
2018-04-25T18:04:44.201Z,24.17
2018-04-25T18:07:13.459Z,24.30
2018-04-25T18:09:41.963Z,23.03
2018-04-25T18:12:10.525Z,28.23
2018-04-25T18:14:39.216Z,23.47
2018-04-25T18:17:07.877Z,24.60
2018-04-25T18:19:37.133Z,23.67
2018-04-25T18:22:05.687Z,28.60
2018-04-25T18:24:34.212Z,22.73
2018-04-25T18:27:03.996Z,25.37
2018-04-25T18:29:32.726Z,28.30
2018-04-25T18:32:02.042Z,30.03
2018-04-25T18:34:32.582Z,22.83
2018-04-25T18:37:01.069Z,18.43
2018-04-25T18:39:29.646Z,23.57
2018-04-25T18:41:58.664Z,19.57
2018-04-25T18:44:28.045Z,26.07
2018-04-25T18:46:56.526Z,21.57
2018-04-25T18:49:25.343Z,32.03
2018-04-25T18:51:53.902Z,18.07
2018-04-25T18:54:22.381Z,28.80
2018-04-25T18:56:51.084Z,19.77
2018-04-25T18:59:19.853Z,17.47
2018-04-25T19:01:48.332Z,26.57
2018-04-25T19:04:16.740Z,31.90
2018-04-25T19:06:45.498Z,24.00
2018-04-25T19:09:15.362Z,30.80
2018-04-25T19:11:43.877Z,34.27
2018-04-25T19:14:12.376Z,37.33
2018-04-25T19:16:40.909Z,32.63
2018-04-25T19:19:09.850Z,37.63
2018-04-25T19:21:38.393Z,35.93
2018-04-25T19:24:06.855Z,35.90
2018-04-25T19:26:35.219Z,38.63
2018-04-25T19:29:04.432Z,27.50
2018-04-25T19:31:33.992Z,29.23
2018-04-25T19:34:02.479Z,47.40
2018-04-25T19:36:31.148Z,36.13
2018-04-25T19:39:00.731Z,35.97
2018-04-25T19:41:30.591Z,23.23
2018-04-25T19:44:02.872Z,23.47
2018-04-25T19:46:34.605Z,34.50
2018-04-25T19:49:05.845Z,35.90
2018-04-25T19:51:36.297Z,34.37
2018-04-25T19:54:06.501Z,32.30
2018-04-25T19:56:38.468Z,37.27
2018-04-25T19:59:10.770Z,32.80
2018-04-25T20:01:40.240Z,28.97
2018-04-25T20:04:09.146Z,35.77
2018-04-25T20:06:37.782Z,28.13
2018-04-25T20:09:07.322Z,33.17
2018-04-25T20:11:36.565Z,32.73
2018-04-25T20:14:09.511Z,32.50
2018-04-25T20:16:38.398Z,32.30
2018-04-25T20:19:08.353Z,34.13
2018-04-25T20:21:37.917Z,21.27
2018-04-25T20:24:06.975Z,28.90
2018-04-25T20:26:36.104Z,16.03
2018-04-25T20:29:05.101Z,21.47
2018-04-25T20:31:33.584Z,19.77
2018-04-25T20:34:02.163Z,23.03
2018-04-25T20:36:31.635Z,23.10
2018-04-25T20:39:00.887Z,18.93
2018-04-25T20:41:34.290Z,26.53
2018-04-25T20:44:02.843Z,21.97
2018-04-25T20:46:31.630Z,24.90
2018-04-25T20:49:00.141Z,28.00
2018-04-25T20:51:29.050Z,25.87
2018-04-25T20:53:58.705Z,28.23
2018-04-25T20:56:27.154Z,35.90
2018-04-25T20:58:57.210Z,34.27
2018-04-25T21:01:25.765Z,43.27
2018-04-25T21:03:55.612Z,22.13
2018-04-25T21:06:24.300Z,27.40
2018-04-25T21:08:52.837Z,32.50
2018-04-25T21:11:21.313Z,35.97
2018-04-25T21:13:51.578Z,27.43
2018-04-25T21:16:20.396Z,24.90
2018-04-25T21:18:49.054Z,21.60
2018-04-25T21:21:17.638Z,39.83
2018-04-25T21:23:46.320Z,27.70
2018-04-25T21:26:14.697Z,31.57
2018-04-25T21:28:43.185Z,27.17
2018-04-25T21:31:11.703Z,27.97
2018-04-25T21:33:40.352Z,35.57
2018-04-25T21:36:08.767Z,25.80
2018-04-25T21:38:37.458Z,26.37
2018-04-25T21:41:07.191Z,19.23
2018-04-25T21:43:35.645Z,22.47
2018-04-25T21:46:04.084Z,20.30
2018-04-25T21:48:32.775Z,23.40
2018-04-25T21:51:01.090Z,28.67
2018-04-25T21:53:36.105Z,25.07
2018-04-25T21:56:07.753Z,18.50
2018-04-25T21:58:37.206Z,23.33
2018-04-25T22:01:06.479Z,21.47
2018-04-25T22:03:35.128Z,24.67
2018-04-25T22:06:04.538Z,25.47
2018-04-25T22:08:37.554Z,21.07
2018-04-25T22:11:07.474Z,22.57
2018-04-25T22:13:36.320Z,23.37
2018-04-25T22:16:06.285Z,20.43
2018-04-25T22:18:35.744Z,21.97
2018-04-25T22:21:04.215Z,18.80
2018-04-25T22:23:32.871Z,25.40
2018-04-25T22:26:02.858Z,19.67
2018-04-25T22:28:31.326Z,21.37
2018-04-25T22:30:59.936Z,25.13
2018-04-25T22:33:28.503Z,19.87
2018-04-25T22:35:56.951Z,29.93
2018-04-25T22:38:27.044Z,20.57
2018-04-25T22:40:56.607Z,24.00
2018-04-25T22:43:27.189Z,25.47
2018-04-25T22:45:55.599Z,26.87
2018-04-25T22:48:25.474Z,32.27
2018-04-25T22:50:53.972Z,25.03
2018-04-25T22:53:22.385Z,22.80
2018-04-25T22:55:50.843Z,26.93
2018-04-25T22:58:19.315Z,29.17
2018-04-25T23:00:47.694Z,23.00
2018-04-25T23:03:16.171Z,25.60
2018-04-25T23:05:44.592Z,33.03
2018-04-25T23:08:13.194Z,28.70
2018-04-25T23:10:41.984Z,22.00
2018-04-25T23:13:10.515Z,23.63
2018-04-25T23:15:38.948Z,26.57
2018-04-25T23:18:08.390Z,34.50
2018-04-25T23:20:36.811Z,22.13
2018-04-25T23:23:05.199Z,29.87
2018-04-25T23:25:33.628Z,28.10
2018-04-25T23:28:02.110Z,21.57
2018-04-25T23:30:30.692Z,27.47
2018-04-25T23:32:59.116Z,20.80
2018-04-25T23:35:27.554Z,23.73
2018-04-25T23:37:56.037Z,26.73
2018-04-25T23:40:24.465Z,21.10
2018-04-25T23:42:52.898Z,22.07
2018-04-25T23:45:21.217Z,18.90
2018-04-25T23:47:50.476Z,26.73
2018-04-25T23:50:19.116Z,23.50
2018-04-25T23:52:48.355Z,23.77
2018-04-25T23:55:16.833Z,20.57
2018-04-25T23:57:45.311Z,26.73
